sensor_id;sensor_type;location;lat;lon;timestamp;temperature;humidity
35804;DHT22;21924;51.934;7.414;2022-09-02T00:02:48;16.70;96.10
35804;DHT22;21924;51.934;7.414;2022-09-02T00:05:33;16.70;96.20
35804;DHT22;21924;51.934;7.414;2022-09-02T00:08:17;16.70;96.20
35804;DHT22;21924;51.934;7.414;2022-09-02T00:11:01;16.70;96.20
35804;DHT22;21924;51.934;7.414;2022-09-02T00:13:49;16.70;96.20
35804;DHT22;21924;51.934;7.414;2022-09-02T00:16:34;16.70;96.20
35804;DHT22;21924;51.934;7.414;2022-09-02T00:19:23;16.60;96.40
35804;DHT22;21924;51.934;7.414;2022-09-02T00:22:08;16.60;96.40
35804;DHT22;21924;51.934;7.414;2022-09-02T00:24:52;16.50;96.50
35804;DHT22;21924;51.934;7.414;2022-09-02T00:27:36;16.50;96.60
35804;DHT22;21924;51.934;7.414;2022-09-02T00:30:20;16.40;96.80
35804;DHT22;21924;51.934;7.414;2022-09-02T00:33:04;16.40;96.90
35804;DHT22;21924;51.934;7.414;2022-09-02T00:35:48;16.40;96.90
35804;DHT22;21924;51.934;7.414;2022-09-02T00:38:33;16.30;97.00
35804;DHT22;21924;51.934;7.414;2022-09-02T00:41:20;16.30;97.10
35804;DHT22;21924;51.934;7.414;2022-09-02T00:44:07;16.20;97.20
35804;DHT22;21924;51.934;7.414;2022-09-02T00:46:51;16.20;97.30
35804;DHT22;21924;51.934;7.414;2022-09-02T00:49:37;16.10;97.40
35804;DHT22;21924;51.934;7.414;2022-09-02T00:52:29;16.10;97.50
35804;DHT22;21924;51.934;7.414;2022-09-02T00:55:19;16.00;97.70
35804;DHT22;21924;51.934;7.414;2022-09-02T00:58:05;15.90;97.90
35804;DHT22;21924;51.934;7.414;2022-09-02T01:00:50;15.90;97.70
35804;DHT22;21924;51.934;7.414;2022-09-02T01:03:35;16.00;97.80
35804;DHT22;21924;51.934;7.414;2022-09-02T01:06:21;16.00;97.80
35804;DHT22;21924;51.934;7.414;2022-09-02T01:09:09;16.00;97.80
35804;DHT22;21924;51.934;7.414;2022-09-02T01:11:53;16.00;97.80
35804;DHT22;21924;51.934;7.414;2022-09-02T01:14:38;16.00;97.80
35804;DHT22;21924;51.934;7.414;2022-09-02T01:17:22;16.00;97.80
35804;DHT22;21924;51.934;7.414;2022-09-02T01:20:10;16.10;97.70
35804;DHT22;21924;51.934;7.414;2022-09-02T01:22:54;16.10;97.60
35804;DHT22;21924;51.934;7.414;2022-09-02T01:25:40;16.10;97.50
35804;DHT22;21924;51.934;7.414;2022-09-02T01:28:24;16.10;97.50
35804;DHT22;21924;51.934;7.414;2022-09-02T01:31:08;16.20;97.40
35804;DHT22;21924;51.934;7.414;2022-09-02T01:33:53;16.20;97.70
35804;DHT22;21924;51.934;7.414;2022-09-02T01:36:38;16.10;97.60
35804;DHT22;21924;51.934;7.414;2022-09-02T01:39:23;16.10;97.80
35804;DHT22;21924;51.934;7.414;2022-09-02T01:42:07;16.10;97.60
35804;DHT22;21924;51.934;7.414;2022-09-02T01:44:51;16.10;97.80
35804;DHT22;21924;51.934;7.414;2022-09-02T01:47:35;16.10;97.70
35804;DHT22;21924;51.934;7.414;2022-09-02T01:50:20;16.10;97.70
35804;DHT22;21924;51.934;7.414;2022-09-02T01:53:04;16.10;97.70
35804;DHT22;21924;51.934;7.414;2022-09-02T01:55:48;16.00;97.80
35804;DHT22;21924;51.934;7.414;2022-09-02T01:58:32;16.00;97.80
35804;DHT22;21924;51.934;7.414;2022-09-02T02:01:16;16.00;97.80
35804;DHT22;21924;51.934;7.414;2022-09-02T02:04:00;16.00;97.90
35804;DHT22;21924;51.934;7.414;2022-09-02T02:06:45;16.00;97.90
35804;DHT22;21924;51.934;7.414;2022-09-02T02:09:31;16.00;97.90
35804;DHT22;21924;51.934;7.414;2022-09-02T02:12:15;16.00;97.90
35804;DHT22;21924;51.934;7.414;2022-09-02T02:15:00;16.00;98.10
35804;DHT22;21924;51.934;7.414;2022-09-02T02:17:45;15.90;98.10
35804;DHT22;21924;51.934;7.414;2022-09-02T02:20:29;15.90;98.20
35804;DHT22;21924;51.934;7.414;2022-09-02T02:23:13;15.90;98.30
35804;DHT22;21924;51.934;7.414;2022-09-02T02:25:57;15.90;98.30
35804;DHT22;21924;51.934;7.414;2022-09-02T02:28:41;15.90;98.40
35804;DHT22;21924;51.934;7.414;2022-09-02T02:31:26;15.80;98.60
35804;DHT22;21924;51.934;7.414;2022-09-02T02:34:10;15.80;98.50
35804;DHT22;21924;51.934;7.414;2022-09-02T02:36:54;15.90;98.60
35804;DHT22;21924;51.934;7.414;2022-09-02T02:39:39;15.80;98.60
35804;DHT22;21924;51.934;7.414;2022-09-02T02:42:23;15.80;98.80
35804;DHT22;21924;51.934;7.414;2022-09-02T02:45:07;15.80;98.90
35804;DHT22;21924;51.934;7.414;2022-09-02T02:47:52;15.80;98.80
35804;DHT22;21924;51.934;7.414;2022-09-02T02:50:36;15.80;99.00
35804;DHT22;21924;51.934;7.414;2022-09-02T02:53:20;15.80;99.00
35804;DHT22;21924;51.934;7.414;2022-09-02T02:56:05;15.80;99.30
35804;DHT22;21924;51.934;7.414;2022-09-02T02:58:50;15.80;99.30
35804;DHT22;21924;51.934;7.414;2022-09-02T03:01:34;15.70;99.40
35804;DHT22;21924;51.934;7.414;2022-09-02T03:04:19;15.70;99.50
35804;DHT22;21924;51.934;7.414;2022-09-02T03:07:03;15.70;99.60
35804;DHT22;21924;51.934;7.414;2022-09-02T03:09:49;15.70;99.60
35804;DHT22;21924;51.934;7.414;2022-09-02T03:12:34;15.70;99.70
35804;DHT22;21924;51.934;7.414;2022-09-02T03:15:18;15.70;99.90
35804;DHT22;21924;51.934;7.414;2022-09-02T03:18:03;15.70;99.90
35804;DHT22;21924;51.934;7.414;2022-09-02T03:20:48;15.70;99.90
35804;DHT22;21924;51.934;7.414;2022-09-02T03:23:32;15.60;99.90
35804;DHT22;21924;51.934;7.414;2022-09-02T03:26:17;15.60;99.90
35804;DHT22;21924;51.934;7.414;2022-09-02T03:29:02;15.60;99.90
35804;DHT22;21924;51.934;7.414;2022-09-02T03:31:46;15.60;99.90
35804;DHT22;21924;51.934;7.414;2022-09-02T03:34:31;15.50;99.90
35804;DHT22;21924;51.934;7.414;2022-09-02T03:37:16;15.50;99.90
35804;DHT22;21924;51.934;7.414;2022-09-02T03:40:20;15.50;99.90
35804;DHT22;21924;51.934;7.414;2022-09-02T03:43:04;15.50;99.90
35804;DHT22;21924;51.934;7.414;2022-09-02T03:45:49;15.50;99.90
35804;DHT22;21924;51.934;7.414;2022-09-02T03:48:33;15.50;99.90
35804;DHT22;21924;51.934;7.414;2022-09-02T03:51:20;15.50;99.90
35804;DHT22;21924;51.934;7.414;2022-09-02T03:54:05;15.50;99.90
35804;DHT22;21924;51.934;7.414;2022-09-02T03:56:50;15.40;99.90
35804;DHT22;21924;51.934;7.414;2022-09-02T03:59:34;15.40;99.90
35804;DHT22;21924;51.934;7.414;2022-09-02T04:02:18;15.30;99.90
35804;DHT22;21924;51.934;7.414;2022-09-02T04:05:03;15.30;99.90
35804;DHT22;21924;51.934;7.414;2022-09-02T04:07:48;15.30;99.90
35804;DHT22;21924;51.934;7.414;2022-09-02T04:10:33;15.30;99.90
35804;DHT22;21924;51.934;7.414;2022-09-02T04:13:19;15.30;99.90
35804;DHT22;21924;51.934;7.414;2022-09-02T04:16:23;15.30;99.90
35804;DHT22;21924;51.934;7.414;2022-09-02T04:19:11;15.20;99.90
35804;DHT22;21924;51.934;7.414;2022-09-02T04:21:56;15.20;99.90
35804;DHT22;21924;51.934;7.414;2022-09-02T04:24:40;15.20;99.90
35804;DHT22;21924;51.934;7.414;2022-09-02T04:27:24;15.20;99.90
35804;DHT22;21924;51.934;7.414;2022-09-02T04:30:08;15.20;99.90
35804;DHT22;21924;51.934;7.414;2022-09-02T04:32:53;15.20;99.90
35804;DHT22;21924;51.934;7.414;2022-09-02T04:35:40;15.20;99.90
35804;DHT22;21924;51.934;7.414;2022-09-02T04:38:24;15.10;99.90
35804;DHT22;21924;51.934;7.414;2022-09-02T04:41:10;15.10;99.90
35804;DHT22;21924;51.934;7.414;2022-09-02T04:43:55;15.10;99.90
35804;DHT22;21924;51.934;7.414;2022-09-02T04:46:40;15.10;99.90
35804;DHT22;21924;51.934;7.414;2022-09-02T04:49:24;15.00;99.90
35804;DHT22;21924;51.934;7.414;2022-09-02T04:52:08;15.10;99.90
35804;DHT22;21924;51.934;7.414;2022-09-02T04:54:53;15.00;99.90
35804;DHT22;21924;51.934;7.414;2022-09-02T04:57:39;15.00;99.90
35804;DHT22;21924;51.934;7.414;2022-09-02T05:00:23;15.00;99.90
35804;DHT22;21924;51.934;7.414;2022-09-02T05:03:07;15.00;99.90
35804;DHT22;21924;51.934;7.414;2022-09-02T05:05:58;15.00;99.90
35804;DHT22;21924;51.934;7.414;2022-09-02T05:08:43;14.90;99.90
35804;DHT22;21924;51.934;7.414;2022-09-02T05:11:29;15.00;99.90
35804;DHT22;21924;51.934;7.414;2022-09-02T05:14:14;14.90;99.90
35804;DHT22;21924;51.934;7.414;2022-09-02T05:16:59;15.00;99.90
35804;DHT22;21924;51.934;7.414;2022-09-02T05:19:43;15.00;99.90
35804;DHT22;21924;51.934;7.414;2022-09-02T05:22:27;15.00;99.90
35804;DHT22;21924;51.934;7.414;2022-09-02T05:25:12;15.00;99.90
35804;DHT22;21924;51.934;7.414;2022-09-02T05:27:56;15.00;99.90
35804;DHT22;21924;51.934;7.414;2022-09-02T05:30:41;15.00;99.90
35804;DHT22;21924;51.934;7.414;2022-09-02T05:33:25;15.10;99.90
35804;DHT22;21924;51.934;7.414;2022-09-02T05:36:11;15.10;99.90
35804;DHT22;21924;51.934;7.414;2022-09-02T05:38:56;15.10;99.90
35804;DHT22;21924;51.934;7.414;2022-09-02T05:41:40;15.20;99.90
35804;DHT22;21924;51.934;7.414;2022-09-02T05:44:25;15.20;99.90
35804;DHT22;21924;51.934;7.414;2022-09-02T05:47:11;15.20;99.90
35804;DHT22;21924;51.934;7.414;2022-09-02T05:49:56;15.20;99.90
35804;DHT22;21924;51.934;7.414;2022-09-02T05:52:40;15.30;99.90
35804;DHT22;21924;51.934;7.414;2022-09-02T05:55:24;15.30;99.90
35804;DHT22;21924;51.934;7.414;2022-09-02T05:58:08;15.30;99.90
35804;DHT22;21924;51.934;7.414;2022-09-02T06:00:52;15.30;99.90
35804;DHT22;21924;51.934;7.414;2022-09-02T06:03:36;15.40;99.90
35804;DHT22;21924;51.934;7.414;2022-09-02T06:06:21;15.40;99.90
35804;DHT22;21924;51.934;7.414;2022-09-02T06:09:07;15.50;99.90
35804;DHT22;21924;51.934;7.414;2022-09-02T06:11:52;15.50;99.90
35804;DHT22;21924;51.934;7.414;2022-09-02T06:14:36;15.50;99.90
35804;DHT22;21924;51.934;7.414;2022-09-02T06:17:21;15.50;99.90
35804;DHT22;21924;51.934;7.414;2022-09-02T06:20:05;15.60;99.90
35804;DHT22;21924;51.934;7.414;2022-09-02T06:22:49;15.70;99.90
35804;DHT22;21924;51.934;7.414;2022-09-02T06:25:36;15.80;99.90
35804;DHT22;21924;51.934;7.414;2022-09-02T06:28:21;15.90;99.90
35804;DHT22;21924;51.934;7.414;2022-09-02T06:31:06;16.00;99.90
35804;DHT22;21924;51.934;7.414;2022-09-02T06:33:52;16.00;99.90
35804;DHT22;21924;51.934;7.414;2022-09-02T06:36:36;16.10;99.90
35804;DHT22;21924;51.934;7.414;2022-09-02T06:39:21;16.20;99.90
35804;DHT22;21924;51.934;7.414;2022-09-02T06:42:06;16.20;99.90
35804;DHT22;21924;51.934;7.414;2022-09-02T06:44:50;16.30;99.90
35804;DHT22;21924;51.934;7.414;2022-09-02T06:47:34;16.40;99.90
35804;DHT22;21924;51.934;7.414;2022-09-02T06:50:19;16.40;99.90
35804;DHT22;21924;51.934;7.414;2022-09-02T06:53:04;16.60;99.90
35804;DHT22;21924;51.934;7.414;2022-09-02T06:55:50;16.70;99.90
35804;DHT22;21924;51.934;7.414;2022-09-02T06:58:35;16.70;99.90
35804;DHT22;21924;51.934;7.414;2022-09-02T07:01:20;16.80;99.90
35804;DHT22;21924;51.934;7.414;2022-09-02T07:04:04;16.90;99.90
35804;DHT22;21924;51.934;7.414;2022-09-02T07:07:08;17.00;99.90
35804;DHT22;21924;51.934;7.414;2022-09-02T07:09:52;17.10;99.90
35804;DHT22;21924;51.934;7.414;2022-09-02T07:12:37;17.10;99.90
35804;DHT22;21924;51.934;7.414;2022-09-02T07:15:21;17.30;99.90
35804;DHT22;21924;51.934;7.414;2022-09-02T07:18:06;17.30;99.90
35804;DHT22;21924;51.934;7.414;2022-09-02T07:20:50;17.30;99.90
35804;DHT22;21924;51.934;7.414;2022-09-02T07:23:34;17.40;99.90
35804;DHT22;21924;51.934;7.414;2022-09-02T07:26:19;17.60;99.90
35804;DHT22;21924;51.934;7.414;2022-09-02T07:29:04;17.70;99.90
35804;DHT22;21924;51.934;7.414;2022-09-02T07:31:51;17.70;99.90
35804;DHT22;21924;51.934;7.414;2022-09-02T07:34:35;17.80;99.90
35804;DHT22;21924;51.934;7.414;2022-09-02T07:37:19;17.80;99.90
35804;DHT22;21924;51.934;7.414;2022-09-02T07:40:04;17.80;99.90
35804;DHT22;21924;51.934;7.414;2022-09-02T07:42:49;17.90;99.90
35804;DHT22;21924;51.934;7.414;2022-09-02T07:45:34;18.00;99.90
35804;DHT22;21924;51.934;7.414;2022-09-02T07:48:18;18.00;99.90
35804;DHT22;21924;51.934;7.414;2022-09-02T07:51:03;18.20;99.90
35804;DHT22;21924;51.934;7.414;2022-09-02T07:53:47;18.30;99.90
35804;DHT22;21924;51.934;7.414;2022-09-02T07:56:32;18.30;99.90
35804;DHT22;21924;51.934;7.414;2022-09-02T07:59:17;18.50;99.90
35804;DHT22;21924;51.934;7.414;2022-09-02T08:02:01;18.60;99.90
35804;DHT22;21924;51.934;7.414;2022-09-02T08:04:45;18.60;99.90
35804;DHT22;21924;51.934;7.414;2022-09-02T08:07:29;18.70;99.90
35804;DHT22;21924;51.934;7.414;2022-09-02T08:10:13;18.70;99.90
35804;DHT22;21924;51.934;7.414;2022-09-02T08:12:59;18.80;99.90
35804;DHT22;21924;51.934;7.414;2022-09-02T08:15:48;18.90;99.90
35804;DHT22;21924;51.934;7.414;2022-09-02T08:18:33;19.00;99.90
35804;DHT22;21924;51.934;7.414;2022-09-02T08:21:17;19.10;99.90
35804;DHT22;21924;51.934;7.414;2022-09-02T08:24:02;19.20;99.90
35804;DHT22;21924;51.934;7.414;2022-09-02T08:26:46;19.30;99.90
35804;DHT22;21924;51.934;7.414;2022-09-02T08:29:30;19.30;99.90
35804;DHT22;21924;51.934;7.414;2022-09-02T08:32:14;19.30;99.90
35804;DHT22;21924;51.934;7.414;2022-09-02T08:34:58;19.50;99.90
35804;DHT22;21924;51.934;7.414;2022-09-02T08:37:45;19.50;99.90
35804;DHT22;21924;51.934;7.414;2022-09-02T08:40:33;19.60;99.90
35804;DHT22;21924;51.934;7.414;2022-09-02T08:46:15;19.80;99.90
35804;DHT22;21924;51.934;7.414;2022-09-02T08:49:02;20.00;99.90
35804;DHT22;21924;51.934;7.414;2022-09-02T08:51:48;19.90;99.90
35804;DHT22;21924;51.934;7.414;2022-09-02T08:54:50;19.90;99.90
35804;DHT22;21924;51.934;7.414;2022-09-02T08:57:35;20.10;99.90
35804;DHT22;21924;51.934;7.414;2022-09-02T09:00:20;20.30;99.90
35804;DHT22;21924;51.934;7.414;2022-09-02T09:03:11;20.40;99.90
35804;DHT22;21924;51.934;7.414;2022-09-02T09:08:49;20.50;99.90
35804;DHT22;21924;51.934;7.414;2022-09-02T09:11:37;20.60;99.90
35804;DHT22;21924;51.934;7.414;2022-09-02T09:17:24;20.80;99.60
35804;DHT22;21924;51.934;7.414;2022-09-02T09:20:44;20.90;99.80
35804;DHT22;21924;51.934;7.414;2022-09-02T09:23:24;21.00;99.70
35804;DHT22;21924;51.934;7.414;2022-09-02T09:26:11;21.10;99.30
35804;DHT22;21924;51.934;7.414;2022-09-02T09:28:56;21.20;98.90
35804;DHT22;21924;51.934;7.414;2022-09-02T09:31:42;21.30;98.80
35804;DHT22;21924;51.934;7.414;2022-09-02T09:45:48;21.70;98.00
35804;DHT22;21924;51.934;7.414;2022-09-02T09:48:34;21.70;98.20
35804;DHT22;21924;51.934;7.414;2022-09-02T09:51:19;21.80;97.60
35804;DHT22;21924;51.934;7.414;2022-09-02T09:54:13;21.90;97.70
35804;DHT22;21924;51.934;7.414;2022-09-02T09:57:15;22.00;97.40
35804;DHT22;21924;51.934;7.414;2022-09-02T09:59:59;22.00;97.50
35804;DHT22;21924;51.934;7.414;2022-09-02T10:02:46;22.20;97.50
35804;DHT22;21924;51.934;7.414;2022-09-02T10:05:37;22.20;97.00
35804;DHT22;21924;51.934;7.414;2022-09-02T10:08:22;22.30;97.10
35804;DHT22;21924;51.934;7.414;2022-09-02T10:11:17;22.40;97.20
35804;DHT22;21924;51.934;7.414;2022-09-02T10:14:05;22.60;97.10
35804;DHT22;21924;51.934;7.414;2022-09-02T10:23:20;22.80;96.40
35804;DHT22;21924;51.934;7.414;2022-09-02T10:26:23;22.80;96.90
35804;DHT22;21924;51.934;7.414;2022-09-02T10:32:35;23.50;96.30
35804;DHT22;21924;51.934;7.414;2022-09-02T10:35:24;23.40;95.10
35804;DHT22;21924;51.934;7.414;2022-09-02T10:44:36;23.80;94.80
35804;DHT22;21924;51.934;7.414;2022-09-02T10:47:24;24.10;94.60
35804;DHT22;21924;51.934;7.414;2022-09-02T10:50:32;24.10;94.60
35804;DHT22;21924;51.934;7.414;2022-09-02T10:56:05;23.80;94.10
35804;DHT22;21924;51.934;7.414;2022-09-02T10:58:58;23.90;94.30
35804;DHT22;21924;51.934;7.414;2022-09-02T11:01:48;23.80;94.20
35804;DHT22;21924;51.934;7.414;2022-09-02T11:04:39;23.80;94.10
35804;DHT22;21924;51.934;7.414;2022-09-02T11:07:27;24.00;93.60
35804;DHT22;21924;51.934;7.414;2022-09-02T11:10:24;23.70;93.60
35804;DHT22;21924;51.934;7.414;2022-09-02T11:13:14;23.70;93.80
35804;DHT22;21924;51.934;7.414;2022-09-02T11:16:04;24.10;93.00
35804;DHT22;21924;51.934;7.414;2022-09-02T11:19:01;24.30;92.80
35804;DHT22;21924;51.934;7.414;2022-09-02T11:21:51;23.90;93.10
35804;DHT22;21924;51.934;7.414;2022-09-02T11:24:41;24.20;93.10
35804;DHT22;21924;51.934;7.414;2022-09-02T11:27:32;24.60;92.80
35804;DHT22;21924;51.934;7.414;2022-09-02T11:30:24;25.10;92.50
35804;DHT22;21924;51.934;7.414;2022-09-02T11:33:18;25.50;91.90
35804;DHT22;21924;51.934;7.414;2022-09-02T11:36:03;25.30;91.30
35804;DHT22;21924;51.934;7.414;2022-09-02T11:47:33;25.10;90.60
35804;DHT22;21924;51.934;7.414;2022-09-02T11:50:22;25.00;90.30
35804;DHT22;21924;51.934;7.414;2022-09-02T11:53:16;24.80;90.70
35804;DHT22;21924;51.934;7.414;2022-09-02T11:56:06;24.70;90.90
35804;DHT22;21924;51.934;7.414;2022-09-02T11:58:51;24.50;91.10
35804;DHT22;21924;51.934;7.414;2022-09-02T12:01:46;24.50;90.50
35804;DHT22;21924;51.934;7.414;2022-09-02T12:04:30;24.60;90.40
35804;DHT22;21924;51.934;7.414;2022-09-02T12:09:58;25.10;89.70
35804;DHT22;21924;51.934;7.414;2022-09-02T12:15:29;25.00;89.30
35804;DHT22;21924;51.934;7.414;2022-09-02T12:18:25;25.00;89.00
35804;DHT22;21924;51.934;7.414;2022-09-02T12:21:15;25.50;86.90
35804;DHT22;21924;51.934;7.414;2022-09-02T12:24:01;25.90;87.10
35804;DHT22;21924;51.934;7.414;2022-09-02T12:29:31;26.50;85.30
35804;DHT22;21924;51.934;7.414;2022-09-02T12:43:44;26.80;82.10
35804;DHT22;21924;51.934;7.414;2022-09-02T12:52:12;25.80;83.10
35804;DHT22;21924;51.934;7.414;2022-09-02T12:55:30;25.70;83.20
35804;DHT22;21924;51.934;7.414;2022-09-02T12:58:19;25.10;84.10
35804;DHT22;21924;51.934;7.414;2022-09-02T13:04:01;25.10;86.00
35804;DHT22;21924;51.934;7.414;2022-09-02T13:32:42;26.60;85.30
35804;DHT22;21924;51.934;7.414;2022-09-02T13:35:26;26.80;83.80
35804;DHT22;21924;51.934;7.414;2022-09-02T13:38:11;26.10;83.50
35804;DHT22;21924;51.934;7.414;2022-09-02T13:40:55;25.60;84.00
35804;DHT22;21924;51.934;7.414;2022-09-02T13:43:39;25.20;84.60
35804;DHT22;21924;51.934;7.414;2022-09-02T13:46:24;25.10;84.90
35804;DHT22;21924;51.934;7.414;2022-09-02T13:49:16;25.30;85.60
35804;DHT22;21924;51.934;7.414;2022-09-02T13:52:00;25.60;84.90
35804;DHT22;21924;51.934;7.414;2022-09-02T13:54:46;25.60;84.80
35804;DHT22;21924;51.934;7.414;2022-09-02T13:57:31;25.50;85.20
35804;DHT22;21924;51.934;7.414;2022-09-02T14:00:15;25.50;85.00
35804;DHT22;21924;51.934;7.414;2022-09-02T14:03:10;25.40;85.40
35804;DHT22;21924;51.934;7.414;2022-09-02T14:05:55;25.40;85.40
35804;DHT22;21924;51.934;7.414;2022-09-02T14:08:40;25.10;86.00
35804;DHT22;21924;51.934;7.414;2022-09-02T14:11:25;24.90;84.00
35804;DHT22;21924;51.934;7.414;2022-09-02T14:14:13;24.60;84.70
35804;DHT22;21924;51.934;7.414;2022-09-02T14:20:08;24.50;84.70
35804;DHT22;21924;51.934;7.414;2022-09-02T14:22:56;24.20;84.30
35804;DHT22;21924;51.934;7.414;2022-09-02T14:25:47;24.40;84.70
35804;DHT22;21924;51.934;7.414;2022-09-02T14:28:32;24.60;85.10
35804;DHT22;21924;51.934;7.414;2022-09-02T14:31:25;24.80;84.90
35804;DHT22;21924;51.934;7.414;2022-09-02T14:34:34;25.30;84.90
35804;DHT22;21924;51.934;7.414;2022-09-02T14:37:20;25.60;83.10
35804;DHT22;21924;51.934;7.414;2022-09-02T14:40:06;25.50;82.70
35804;DHT22;21924;51.934;7.414;2022-09-02T14:42:54;25.50;82.50
35804;DHT22;21924;51.934;7.414;2022-09-02T14:45:38;25.50;82.40
35804;DHT22;21924;51.934;7.414;2022-09-02T14:48:25;25.40;81.30
35804;DHT22;21924;51.934;7.414;2022-09-02T14:51:09;25.20;81.80
35804;DHT22;21924;51.934;7.414;2022-09-02T14:53:54;25.30;81.90
35804;DHT22;21924;51.934;7.414;2022-09-02T14:56:51;25.40;81.40
35804;DHT22;21924;51.934;7.414;2022-09-02T14:59:36;25.10;81.00
35804;DHT22;21924;51.934;7.414;2022-09-02T15:02:21;25.10;81.30
35804;DHT22;21924;51.934;7.414;2022-09-02T15:05:06;24.90;81.30
35804;DHT22;21924;51.934;7.414;2022-09-02T15:07:50;24.90;81.70
35804;DHT22;21924;51.934;7.414;2022-09-02T15:10:35;24.60;81.50
35804;DHT22;21924;51.934;7.414;2022-09-02T15:13:28;24.60;82.20
35804;DHT22;21924;51.934;7.414;2022-09-02T15:16:15;24.50;82.10
35804;DHT22;21924;51.934;7.414;2022-09-02T15:18:59;24.50;83.00
35804;DHT22;21924;51.934;7.414;2022-09-02T15:21:44;24.40;82.30
35804;DHT22;21924;51.934;7.414;2022-09-02T15:24:27;24.30;82.80
35804;DHT22;21924;51.934;7.414;2022-09-02T15:27:12;24.30;82.60
35804;DHT22;21924;51.934;7.414;2022-09-02T15:29:56;24.20;82.60
35804;DHT22;21924;51.934;7.414;2022-09-02T15:32:40;24.30;83.40
35804;DHT22;21924;51.934;7.414;2022-09-02T15:35:24;24.40;83.20
35804;DHT22;21924;51.934;7.414;2022-09-02T15:38:08;24.40;82.60
35804;DHT22;21924;51.934;7.414;2022-09-02T15:40:52;24.40;83.20
35804;DHT22;21924;51.934;7.414;2022-09-02T15:43:37;24.40;83.10
35804;DHT22;21924;51.934;7.414;2022-09-02T15:46:25;24.40;83.10
35804;DHT22;21924;51.934;7.414;2022-09-02T15:49:11;24.40;83.40
35804;DHT22;21924;51.934;7.414;2022-09-02T15:51:56;24.40;83.10
35804;DHT22;21924;51.934;7.414;2022-09-02T15:54:40;24.30;82.70
35804;DHT22;21924;51.934;7.414;2022-09-02T15:57:24;24.20;83.10
35804;DHT22;21924;51.934;7.414;2022-09-02T16:00:08;24.10;83.10
35804;DHT22;21924;51.934;7.414;2022-09-02T16:02:52;24.00;83.70
35804;DHT22;21924;51.934;7.414;2022-09-02T16:05:37;23.80;83.60
35804;DHT22;21924;51.934;7.414;2022-09-02T16:08:21;23.80;83.30
35804;DHT22;21924;51.934;7.414;2022-09-02T16:11:06;23.90;84.00
35804;DHT22;21924;51.934;7.414;2022-09-02T16:13:50;23.80;83.90
35804;DHT22;21924;51.934;7.414;2022-09-02T16:16:34;23.60;83.70
35804;DHT22;21924;51.934;7.414;2022-09-02T16:19:19;23.50;84.00
35804;DHT22;21924;51.934;7.414;2022-09-02T16:22:06;23.40;83.80
35804;DHT22;21924;51.934;7.414;2022-09-02T16:24:50;23.30;84.40
35804;DHT22;21924;51.934;7.414;2022-09-02T16:27:34;23.20;84.70
35804;DHT22;21924;51.934;7.414;2022-09-02T16:30:38;23.10;84.20
35804;DHT22;21924;51.934;7.414;2022-09-02T16:33:22;22.90;84.90
35804;DHT22;21924;51.934;7.414;2022-09-02T16:36:06;22.80;85.60
35804;DHT22;21924;51.934;7.414;2022-09-02T16:38:50;22.70;85.90
35804;DHT22;21924;51.934;7.414;2022-09-02T16:44:22;22.80;86.10
35804;DHT22;21924;51.934;7.414;2022-09-02T16:47:06;22.80;86.00
35804;DHT22;21924;51.934;7.414;2022-09-02T16:49:50;22.80;86.20
35804;DHT22;21924;51.934;7.414;2022-09-02T16:52:34;22.90;86.40
35804;DHT22;21924;51.934;7.414;2022-09-02T16:55:19;22.90;85.60
35804;DHT22;21924;51.934;7.414;2022-09-02T16:58:03;22.90;86.30
35804;DHT22;21924;51.934;7.414;2022-09-02T17:00:47;22.90;86.10
35804;DHT22;21924;51.934;7.414;2022-09-02T17:03:32;22.70;86.10
35804;DHT22;21924;51.934;7.414;2022-09-02T17:06:16;22.70;85.80
35804;DHT22;21924;51.934;7.414;2022-09-02T17:09:01;22.70;86.10
35804;DHT22;21924;51.934;7.414;2022-09-02T17:11:45;22.70;86.20
35804;DHT22;21924;51.934;7.414;2022-09-02T17:14:29;22.70;86.30
35804;DHT22;21924;51.934;7.414;2022-09-02T17:17:13;22.60;86.40
35804;DHT22;21924;51.934;7.414;2022-09-02T17:19:59;22.40;87.40
35804;DHT22;21924;51.934;7.414;2022-09-02T17:22:43;22.40;86.90
35804;DHT22;21924;51.934;7.414;2022-09-02T17:25:27;22.30;86.80
35804;DHT22;21924;51.934;7.414;2022-09-02T17:28:11;22.30;86.80
35804;DHT22;21924;51.934;7.414;2022-09-02T17:30:56;22.30;87.00
35804;DHT22;21924;51.934;7.414;2022-09-02T17:33:40;22.30;87.40
35804;DHT22;21924;51.934;7.414;2022-09-02T17:36:25;22.10;87.70
35804;DHT22;21924;51.934;7.414;2022-09-02T17:39:11;22.10;87.40
35804;DHT22;21924;51.934;7.414;2022-09-02T17:41:55;22.00;87.60
35804;DHT22;21924;51.934;7.414;2022-09-02T17:44:42;21.90;87.70
35804;DHT22;21924;51.934;7.414;2022-09-02T17:47:26;21.90;87.60
35804;DHT22;21924;51.934;7.414;2022-09-02T17:50:14;21.90;87.80
35804;DHT22;21924;51.934;7.414;2022-09-02T17:52:58;21.90;87.80
35804;DHT22;21924;51.934;7.414;2022-09-02T17:55:42;21.90;87.70
35804;DHT22;21924;51.934;7.414;2022-09-02T17:58:27;21.80;87.70
35804;DHT22;21924;51.934;7.414;2022-09-02T18:01:15;21.70;88.10
35804;DHT22;21924;51.934;7.414;2022-09-02T18:06:48;21.50;88.50
35804;DHT22;21924;51.934;7.414;2022-09-02T18:09:33;21.40;89.10
35804;DHT22;21924;51.934;7.414;2022-09-02T18:12:17;21.20;89.50
35804;DHT22;21924;51.934;7.414;2022-09-02T18:15:01;21.10;89.80
35804;DHT22;21924;51.934;7.414;2022-09-02T18:17:49;21.00;90.00
35804;DHT22;21924;51.934;7.414;2022-09-02T18:20:39;20.90;90.20
35804;DHT22;21924;51.934;7.414;2022-09-02T18:23:36;20.90;90.20
35804;DHT22;21924;51.934;7.414;2022-09-02T18:26:29;20.80;90.30
35804;DHT22;21924;51.934;7.414;2022-09-02T18:32:26;20.70;90.50
35804;DHT22;21924;51.934;7.414;2022-09-02T18:35:20;20.70;90.60
35804;DHT22;21924;51.934;7.414;2022-09-02T18:38:20;20.60;90.60
35804;DHT22;21924;51.934;7.414;2022-09-02T18:47:22;20.50;90.70
35804;DHT22;21924;51.934;7.414;2022-09-02T18:50:07;20.40;90.80
35804;DHT22;21924;51.934;7.414;2022-09-02T18:52:51;20.40;91.00
35804;DHT22;21924;51.934;7.414;2022-09-02T18:55:39;20.30;90.90
35804;DHT22;21924;51.934;7.414;2022-09-02T18:58:29;20.30;91.00
35804;DHT22;21924;51.934;7.414;2022-09-02T19:01:29;20.30;91.10
35804;DHT22;21924;51.934;7.414;2022-09-02T19:04:13;20.20;91.20
35804;DHT22;21924;51.934;7.414;2022-09-02T19:06:57;20.10;91.20
35804;DHT22;21924;51.934;7.414;2022-09-02T19:10:02;20.10;91.30
35804;DHT22;21924;51.934;7.414;2022-09-02T19:12:46;20.00;91.40
35804;DHT22;21924;51.934;7.414;2022-09-02T19:15:30;20.00;91.40
35804;DHT22;21924;51.934;7.414;2022-09-02T19:18:15;19.90;91.50
35804;DHT22;21924;51.934;7.414;2022-09-02T19:20:59;19.90;91.50
35804;DHT22;21924;51.934;7.414;2022-09-02T19:23:44;19.90;91.40
35804;DHT22;21924;51.934;7.414;2022-09-02T19:26:29;20.00;91.40
35804;DHT22;21924;51.934;7.414;2022-09-02T19:29:14;20.00;91.50
35804;DHT22;21924;51.934;7.414;2022-09-02T19:31:59;19.90;91.60